createdAt,value
2017-08-23T00:01:50.882Z,10.10
2017-08-23T00:04:16.930Z,10.00
2017-08-23T00:06:43.001Z,9.90
2017-08-23T00:09:09.080Z,9.90
2017-08-23T00:11:35.167Z,9.80
2017-08-23T00:14:01.268Z,9.80
2017-08-23T00:16:27.387Z,9.70
2017-08-23T00:18:53.439Z,9.60
2017-08-23T00:21:19.508Z,9.60
2017-08-23T00:23:45.586Z,9.50
2017-08-23T00:26:11.659Z,9.50
2017-08-23T00:28:37.767Z,9.50
2017-08-23T00:31:03.853Z,9.50
2017-08-23T00:33:29.934Z,9.50
2017-08-23T00:35:55.997Z,9.50
2017-08-23T00:38:22.098Z,9.40
2017-08-23T00:40:48.159Z,9.40
2017-08-23T00:43:14.216Z,9.40
2017-08-23T00:45:40.302Z,9.40
2017-08-23T00:48:06.383Z,9.40
2017-08-23T00:50:32.471Z,9.40
2017-08-23T00:52:58.547Z,9.50
2017-08-23T00:55:24.646Z,9.50
2017-08-23T00:57:50.729Z,9.50
2017-08-23T01:00:16.859Z,9.50
2017-08-23T01:02:42.938Z,9.60
2017-08-23T01:05:09.051Z,9.60
2017-08-23T01:07:35.133Z,9.60
2017-08-23T01:10:01.195Z,9.60
2017-08-23T01:12:27.283Z,9.50
2017-08-23T01:14:53.342Z,9.40
2017-08-23T01:17:19.465Z,9.40
2017-08-23T01:19:45.530Z,9.40
2017-08-23T01:22:11.619Z,9.40
2017-08-23T01:24:37.683Z,9.40
2017-08-23T01:27:03.770Z,9.30
2017-08-23T01:29:29.851Z,9.30
2017-08-23T01:31:56.002Z,9.30
2017-08-23T01:34:22.059Z,9.30
2017-08-23T01:36:48.140Z,9.30
2017-08-23T01:39:14.190Z,9.30
2017-08-23T01:41:40.286Z,9.30
2017-08-23T01:44:06.355Z,9.30
2017-08-23T01:46:32.418Z,9.20
2017-08-23T01:48:58.519Z,9.10
2017-08-23T01:51:24.590Z,9.10
2017-08-23T01:53:50.683Z,9.20
2017-08-23T01:56:16.742Z,9.20
2017-08-23T01:58:42.835Z,9.20
2017-08-23T02:01:08.907Z,9.10
2017-08-23T02:03:34.974Z,9.00
2017-08-23T02:06:01.047Z,8.90
2017-08-23T02:08:27.127Z,8.90
2017-08-23T02:10:53.178Z,8.90
2017-08-23T02:13:19.262Z,9.00
2017-08-23T02:15:45.363Z,9.00
2017-08-23T02:18:11.506Z,8.90
2017-08-23T02:20:37.567Z,8.90
2017-08-23T02:23:03.654Z,9.00
2017-08-23T02:25:29.786Z,9.00
2017-08-23T02:27:55.893Z,8.90
2017-08-23T02:30:21.941Z,8.90
2017-08-23T02:32:47.991Z,8.90
2017-08-23T02:35:14.144Z,8.90
2017-08-23T02:37:40.281Z,8.90
2017-08-23T02:40:06.334Z,8.90
2017-08-23T02:42:32.438Z,8.90
2017-08-23T02:44:58.536Z,8.90
2017-08-23T02:47:24.593Z,8.90
2017-08-23T02:49:50.750Z,8.80
2017-08-23T02:52:16.826Z,8.80
2017-08-23T02:54:42.926Z,8.80
2017-08-23T02:57:09.052Z,8.70
2017-08-23T02:59:35.174Z,8.70
2017-08-23T03:02:01.251Z,8.70
2017-08-23T03:04:27.314Z,8.60
2017-08-23T03:06:53.382Z,8.60
2017-08-23T03:09:19.482Z,8.60
2017-08-23T03:11:45.566Z,8.50
2017-08-23T03:14:11.677Z,8.50
2017-08-23T03:16:37.735Z,8.50
2017-08-23T03:19:03.823Z,8.40
2017-08-23T03:21:29.903Z,8.30
2017-08-23T03:23:55.990Z,8.30
2017-08-23T03:26:22.066Z,8.30
2017-08-23T03:28:48.145Z,8.30
2017-08-23T03:31:14.214Z,8.30
2017-08-23T03:33:40.289Z,8.20
2017-08-23T03:36:06.374Z,8.20
2017-08-23T03:38:32.466Z,8.10
2017-08-23T03:40:58.534Z,8.00
2017-08-23T03:43:24.590Z,8.00
2017-08-23T03:45:50.671Z,7.90
2017-08-23T03:48:16.723Z,7.80
2017-08-23T03:50:42.794Z,7.80
2017-08-23T03:53:08.938Z,7.80
2017-08-23T03:55:35.019Z,7.80
2017-08-23T03:58:01.086Z,7.80
2017-08-23T04:00:27.166Z,7.80
2017-08-23T04:02:53.233Z,7.80
2017-08-23T04:05:20.917Z,7.70
2017-08-23T04:07:46.970Z,7.70
2017-08-23T04:10:13.078Z,7.70
2017-08-23T04:12:39.183Z,7.70
2017-08-23T04:15:05.270Z,7.70
2017-08-23T04:17:31.366Z,7.70
2017-08-23T04:19:57.442Z,7.70
2017-08-23T04:22:23.518Z,7.70
2017-08-23T04:24:49.598Z,7.70
2017-08-23T04:27:15.677Z,7.70
2017-08-23T04:29:41.743Z,7.60
2017-08-23T04:32:07.846Z,7.60
2017-08-23T04:34:33.906Z,7.60
2017-08-23T04:37:00.009Z,7.40
2017-08-23T04:39:26.069Z,7.30
2017-08-23T04:41:52.162Z,7.30
2017-08-23T04:44:18.238Z,7.30
2017-08-23T04:46:44.299Z,7.30
2017-08-23T04:49:10.373Z,7.40
2017-08-23T04:51:38.043Z,7.30
2017-08-23T04:54:04.169Z,7.40
2017-08-23T04:56:31.040Z,7.40
2017-08-23T04:58:57.114Z,7.50
2017-08-23T05:01:23.178Z,7.60
2017-08-23T05:03:49.255Z,7.60
2017-08-23T05:06:15.326Z,7.70
2017-08-23T05:08:41.422Z,7.70
2017-08-23T05:11:07.508Z,7.80
2017-08-23T05:13:34.321Z,7.90
2017-08-23T05:16:00.432Z,7.90
2017-08-23T05:18:26.526Z,8.00
2017-08-23T05:20:52.707Z,8.00
2017-08-23T05:23:18.786Z,8.00
2017-08-23T05:25:44.923Z,8.00
2017-08-23T05:28:10.978Z,8.10
2017-08-23T05:30:37.162Z,8.20
2017-08-23T05:33:03.225Z,8.10
2017-08-23T05:35:29.310Z,8.20
2017-08-23T05:37:55.366Z,8.40
2017-08-23T05:40:21.459Z,8.50
2017-08-23T05:42:47.522Z,8.50
2017-08-23T05:45:13.598Z,8.70
2017-08-23T05:47:39.667Z,8.80
2017-08-23T05:50:05.757Z,8.80
2017-08-23T05:52:31.820Z,9.00
2017-08-23T05:54:57.914Z,9.20
2017-08-23T05:57:23.972Z,9.30
2017-08-23T05:59:50.041Z,9.50
2017-08-23T06:02:16.107Z,9.60
2017-08-23T06:04:42.442Z,9.70
2017-08-23T06:07:08.573Z,9.80
2017-08-23T06:09:34.630Z,9.90
2017-08-23T06:12:00.720Z,10.10
2017-08-23T06:14:26.807Z,10.30
2017-08-23T06:16:52.862Z,10.50
2017-08-23T06:19:18.918Z,10.60
2017-08-23T06:21:44.991Z,10.80
2017-08-23T06:24:11.041Z,10.90
2017-08-23T06:26:37.138Z,11.10
2017-08-23T06:29:03.189Z,11.20
2017-08-23T06:31:29.263Z,11.40
2017-08-23T06:33:55.330Z,11.50
2017-08-23T06:36:21.442Z,11.70
2017-08-23T06:38:47.510Z,11.90
2017-08-23T06:41:13.563Z,12.00
2017-08-23T06:43:39.648Z,12.10
2017-08-23T06:46:05.748Z,12.20
2017-08-23T06:48:31.835Z,12.30
2017-08-23T06:50:57.897Z,12.50
2017-08-23T06:53:23.975Z,12.60
2017-08-23T06:55:50.042Z,12.70
2017-08-23T06:58:16.140Z,12.90
2017-08-23T07:00:42.276Z,13.00
2017-08-23T07:03:08.347Z,13.10
2017-08-23T07:05:34.419Z,13.20
2017-08-23T07:08:00.506Z,13.40
2017-08-23T07:10:26.589Z,13.50
2017-08-23T07:12:52.686Z,13.70
2017-08-23T07:15:18.746Z,13.70
2017-08-23T07:17:44.807Z,13.80
2017-08-23T07:20:10.870Z,13.90
2017-08-23T07:22:36.918Z,14.00
2017-08-23T07:25:03.046Z,14.10
2017-08-23T07:27:29.113Z,14.20
2017-08-23T07:29:55.195Z,14.40
2017-08-23T07:32:21.258Z,14.50
2017-08-23T07:34:47.325Z,14.60
2017-08-23T07:37:13.378Z,14.70
2017-08-23T07:39:39.459Z,14.70
2017-08-23T07:42:05.523Z,14.90
2017-08-23T07:44:31.597Z,14.90
2017-08-23T07:46:57.658Z,14.90
2017-08-23T07:49:23.717Z,15.00
2017-08-23T07:51:49.786Z,15.10
2017-08-23T07:54:16.243Z,15.20
2017-08-23T07:56:42.367Z,15.30
2017-08-23T07:59:08.419Z,15.40
2017-08-23T08:01:34.504Z,15.50
2017-08-23T08:04:00.549Z,15.60
2017-08-23T08:06:26.614Z,15.60
2017-08-23T08:08:52.662Z,15.70
2017-08-23T08:11:18.734Z,15.80
2017-08-23T08:13:44.931Z,15.90
2017-08-23T08:16:11.007Z,16.10
2017-08-23T08:18:37.058Z,16.30
2017-08-23T08:21:03.178Z,16.40
2017-08-23T08:23:29.230Z,16.60
2017-08-23T08:25:55.313Z,16.60
2017-08-23T08:28:21.366Z,16.60
2017-08-23T08:30:47.432Z,16.70
2017-08-23T08:33:13.482Z,16.80
2017-08-23T08:35:39.571Z,16.90
2017-08-23T08:38:05.610Z,16.90
2017-08-23T08:40:31.666Z,17.00
2017-08-23T08:42:57.739Z,17.20
2017-08-23T08:45:23.794Z,17.30
2017-08-23T08:47:49.890Z,17.40
2017-08-23T08:50:15.966Z,17.40
2017-08-23T08:52:42.027Z,17.50
2017-08-23T08:55:08.091Z,17.60
2017-08-23T08:57:34.157Z,17.80
2017-08-23T09:00:00.258Z,17.80
2017-08-23T09:02:27.063Z,18.00
2017-08-23T09:04:53.154Z,18.00
2017-08-23T09:07:19.225Z,18.10
2017-08-23T09:09:45.270Z,18.10
2017-08-23T09:12:11.338Z,18.30
2017-08-23T09:14:37.414Z,18.30
2017-08-23T09:17:03.522Z,18.40
2017-08-23T09:19:29.563Z,18.50
2017-08-23T09:21:55.670Z,18.50
2017-08-23T09:24:21.724Z,18.30
2017-08-23T09:26:47.835Z,18.50
2017-08-23T09:29:13.891Z,18.70
2017-08-23T09:31:39.938Z,18.80
2017-08-23T09:34:05.998Z,18.80
2017-08-23T09:36:32.042Z,18.90
2017-08-23T09:38:58.126Z,18.90
2017-08-23T09:41:24.236Z,18.80
2017-08-23T09:43:50.325Z,18.90
2017-08-23T09:46:16.370Z,19.00
2017-08-23T09:48:42.434Z,19.10
2017-08-23T09:51:08.646Z,19.10
2017-08-23T09:53:35.110Z,19.10
2017-08-23T09:56:01.189Z,19.20
2017-08-23T09:58:27.250Z,19.10
2017-08-23T10:00:53.298Z,19.00
2017-08-23T10:03:19.363Z,19.00
2017-08-23T10:05:45.423Z,19.10
2017-08-23T10:08:11.489Z,19.20
2017-08-23T10:10:37.538Z,19.20
2017-08-23T10:13:03.655Z,19.40
2017-08-23T10:15:29.704Z,19.60
2017-08-23T10:17:55.762Z,19.60
2017-08-23T10:20:21.830Z,19.70
2017-08-23T10:22:47.927Z,19.80
2017-08-23T10:25:14.010Z,19.80
2017-08-23T10:27:40.067Z,19.90
2017-08-23T10:30:06.138Z,20.00
2017-08-23T10:32:32.190Z,19.90
2017-08-23T10:34:58.264Z,19.80
2017-08-23T10:37:24.305Z,19.80
2017-08-23T10:39:50.377Z,20.00
2017-08-23T10:42:16.423Z,19.90
2017-08-23T10:44:42.498Z,20.00
2017-08-23T10:47:08.567Z,20.00
2017-08-23T10:49:34.626Z,20.00
2017-08-23T10:52:00.682Z,20.20
2017-08-23T10:54:26.750Z,20.30
2017-08-23T10:56:53.541Z,20.40
2017-08-23T10:59:19.604Z,20.40
2017-08-23T11:01:45.662Z,20.50
2017-08-23T11:04:11.726Z,20.60
2017-08-23T11:06:37.781Z,20.50
2017-08-23T11:09:03.862Z,20.50
2017-08-23T11:11:29.922Z,20.60
2017-08-23T11:13:55.990Z,20.80
2017-08-23T11:16:22.057Z,20.80
2017-08-23T11:18:48.114Z,20.80
2017-08-23T11:21:14.162Z,20.90
2017-08-23T11:23:40.229Z,20.90
2017-08-23T11:26:06.303Z,20.90
2017-08-23T11:28:32.365Z,20.80
2017-08-23T11:30:58.435Z,20.80
2017-08-23T11:33:24.526Z,20.90
2017-08-23T11:35:50.581Z,21.10
2017-08-23T11:38:16.642Z,21.30
2017-08-23T11:40:42.706Z,21.30
2017-08-23T11:43:08.766Z,21.40
2017-08-23T11:45:34.865Z,21.40
2017-08-23T11:48:00.906Z,21.50
2017-08-23T11:50:26.972Z,21.30
2017-08-23T11:52:53.022Z,21.40
2017-08-23T11:55:19.082Z,21.60
2017-08-23T11:57:45.126Z,21.80
2017-08-23T12:00:11.270Z,21.90
2017-08-23T12:02:37.323Z,21.90
2017-08-23T12:05:03.374Z,22.10
2017-08-23T12:07:30.193Z,22.20
2017-08-23T12:09:56.287Z,22.20
2017-08-23T12:12:22.335Z,22.30
2017-08-23T12:14:48.408Z,22.20
2017-08-23T12:17:14.499Z,22.40
2017-08-23T12:19:40.557Z,22.50
2017-08-23T12:22:06.716Z,22.60
2017-08-23T12:24:32.790Z,22.70
2017-08-23T12:26:58.860Z,22.80
2017-08-23T12:29:24.917Z,23.00
2017-08-23T12:31:50.986Z,23.20
2017-08-23T12:34:17.044Z,23.50
2017-08-23T12:36:43.114Z,23.70
2017-08-23T12:39:09.219Z,24.30
2017-08-23T12:41:35.933Z,25.30
2017-08-23T12:44:01.990Z,26.80
2017-08-23T12:46:28.061Z,28.10
2017-08-23T12:48:54.145Z,29.70
2017-08-23T12:51:20.207Z,30.90
2017-08-23T12:53:46.276Z,31.90
2017-08-23T12:56:12.342Z,32.10
2017-08-23T12:58:38.402Z,32.40
2017-08-23T13:01:04.489Z,32.90
2017-08-23T13:03:30.559Z,33.20
2017-08-23T13:06:03.538Z,33.90
2017-08-23T13:08:29.594Z,34.60
2017-08-23T13:10:55.671Z,34.30
2017-08-23T13:13:21.747Z,35.00
2017-08-23T13:15:47.842Z,35.20
2017-08-23T13:18:13.917Z,35.20
2017-08-23T13:20:40.044Z,35.30
2017-08-23T13:23:06.082Z,35.50
2017-08-23T13:25:32.146Z,35.30
2017-08-23T13:27:58.330Z,34.90
2017-08-23T13:30:24.394Z,34.50
2017-08-23T13:32:50.460Z,34.30
2017-08-23T13:35:16.526Z,34.20
2017-08-23T13:37:42.590Z,34.70
2017-08-23T13:40:08.638Z,35.20
2017-08-23T13:42:34.726Z,35.80
2017-08-23T13:45:00.778Z,35.60
2017-08-23T13:47:26.851Z,36.40
2017-08-23T13:49:52.899Z,36.80
2017-08-23T13:52:18.974Z,35.20
2017-08-23T13:54:45.027Z,35.50
2017-08-23T13:57:11.118Z,35.80
2017-08-23T13:59:37.162Z,36.20
2017-08-23T14:02:03.234Z,36.10
2017-08-23T14:04:29.285Z,35.90
2017-08-23T14:06:55.357Z,35.00
2017-08-23T14:11:54.190Z,34.40
2017-08-23T14:14:20.259Z,34.10
2017-08-23T14:16:46.326Z,33.70
2017-08-23T14:19:12.374Z,33.70
2017-08-23T14:21:38.441Z,33.90
2017-08-23T14:24:04.522Z,33.60
2017-08-23T14:26:30.562Z,34.10
2017-08-23T14:28:56.627Z,34.30
2017-08-23T14:31:24.334Z,34.90
2017-08-23T14:33:50.393Z,35.40
2017-08-23T14:36:16.442Z,35.40
2017-08-23T14:38:42.514Z,35.30
2017-08-23T14:41:08.558Z,35.00
2017-08-23T14:43:34.634Z,34.80
2017-08-23T14:46:00.721Z,34.20
2017-08-23T14:48:26.794Z,34.60
2017-08-23T14:50:52.850Z,35.30
2017-08-23T14:53:19.022Z,35.60
2017-08-23T14:55:45.078Z,35.40
2017-08-23T14:58:11.134Z,35.20
2017-08-23T15:00:37.198Z,35.30
2017-08-23T15:03:03.267Z,35.10
2017-08-23T15:05:29.386Z,34.80
2017-08-23T15:07:55.430Z,34.70
2017-08-23T15:10:21.519Z,35.30
2017-08-23T15:12:47.566Z,36.10
2017-08-23T15:15:13.640Z,36.10
2017-08-23T15:17:39.689Z,35.90
2017-08-23T15:20:06.569Z,36.00
2017-08-23T15:22:32.615Z,36.20
2017-08-23T15:24:59.042Z,36.50
2017-08-23T15:27:25.107Z,35.90
2017-08-23T15:29:51.150Z,36.10
2017-08-23T15:32:17.218Z,36.30
2017-08-23T15:34:43.277Z,35.90
2017-08-23T15:37:09.434Z,36.10
2017-08-23T15:39:35.477Z,36.00
2017-08-23T15:42:01.537Z,36.00
2017-08-23T15:44:27.578Z,35.70
2017-08-23T15:46:53.652Z,35.40
2017-08-23T15:49:19.708Z,35.20
2017-08-23T15:51:45.774Z,34.70
2017-08-23T15:54:11.839Z,34.80
2017-08-23T15:56:38.012Z,35.10
2017-08-23T15:59:04.062Z,34.60
2017-08-23T16:01:30.122Z,34.60
2017-08-23T16:03:56.185Z,33.80
2017-08-23T16:06:22.246Z,33.40
2017-08-23T16:08:48.323Z,33.50
2017-08-23T16:11:14.405Z,33.50
2017-08-23T16:13:40.469Z,33.40
2017-08-23T16:16:06.530Z,32.80
2017-08-23T16:18:32.602Z,32.90
2017-08-23T16:20:58.663Z,32.90
2017-08-23T16:23:24.829Z,32.80
2017-08-23T16:25:50.878Z,32.70
2017-08-23T16:28:16.926Z,32.20
2017-08-23T16:30:42.994Z,31.80
2017-08-23T16:33:09.056Z,31.90
2017-08-23T16:35:35.126Z,31.60
2017-08-23T16:38:01.180Z,31.70
2017-08-23T16:40:27.250Z,31.30
2017-08-23T16:42:53.300Z,30.60
2017-08-23T16:45:19.389Z,30.50
2017-08-23T16:47:45.461Z,31.10
2017-08-23T16:50:11.533Z,31.10
2017-08-23T16:52:37.610Z,31.20
2017-08-23T16:55:03.669Z,31.00
2017-08-23T16:57:29.784Z,31.10
2017-08-23T16:59:56.209Z,30.90
2017-08-23T17:02:22.262Z,30.70
2017-08-23T17:04:48.322Z,30.60
2017-08-23T17:07:15.132Z,30.10
2017-08-23T17:09:41.186Z,30.10
2017-08-23T17:12:07.263Z,29.90
2017-08-23T17:14:33.314Z,29.50
2017-08-23T17:16:59.382Z,29.20
2017-08-23T17:19:25.423Z,29.00
2017-08-23T17:21:51.486Z,29.00
2017-08-23T17:24:18.184Z,28.90
2017-08-23T17:26:44.261Z,29.00
2017-08-23T17:29:10.378Z,28.70
2017-08-23T17:31:36.831Z,28.30
2017-08-23T17:34:02.878Z,27.80
2017-08-23T17:36:29.222Z,27.30
2017-08-23T17:38:55.270Z,26.70
2017-08-23T17:41:21.354Z,26.20
2017-08-23T17:43:47.446Z,25.80
2017-08-23T17:46:13.532Z,25.40
2017-08-23T17:48:39.595Z,25.00
2017-08-23T17:51:05.646Z,24.70
2017-08-23T17:53:31.710Z,24.50
2017-08-23T17:55:57.786Z,24.20
2017-08-23T17:58:23.860Z,24.00
2017-08-23T18:00:49.930Z,23.70
2017-08-23T18:03:16.199Z,23.60
2017-08-23T18:05:42.246Z,23.30
2017-08-23T18:08:08.301Z,23.20
2017-08-23T18:10:34.401Z,23.00
2017-08-23T18:13:00.518Z,22.80
2017-08-23T18:15:26.588Z,22.60
2017-08-23T18:17:52.644Z,22.40
2017-08-23T18:20:18.719Z,22.30
2017-08-23T18:22:44.772Z,22.10
2017-08-23T18:25:10.880Z,21.80
2017-08-23T18:27:36.934Z,21.50
2017-08-23T18:30:03.022Z,21.30
2017-08-23T18:32:29.073Z,21.10
2017-08-23T18:34:55.238Z,20.90
2017-08-23T18:37:21.286Z,20.80
2017-08-23T18:39:47.341Z,20.60
2017-08-23T18:42:13.414Z,20.40
2017-08-23T18:44:39.461Z,20.30
2017-08-23T18:47:05.527Z,20.10
2017-08-23T18:49:31.629Z,19.90
2017-08-23T18:51:57.697Z,19.80
2017-08-23T18:54:23.762Z,19.80
2017-08-23T18:56:49.842Z,19.60
2017-08-23T18:59:15.902Z,19.50
2017-08-23T19:01:41.968Z,19.40
2017-08-23T19:04:08.052Z,19.30
2017-08-23T19:06:34.106Z,19.20
2017-08-23T19:09:00.195Z,19.10
2017-08-23T19:11:26.268Z,19.00
2017-08-23T19:13:52.427Z,19.00
2017-08-23T19:16:18.493Z,18.90
2017-08-23T19:18:44.578Z,18.90
2017-08-23T19:21:10.650Z,18.80
2017-08-23T19:23:36.709Z,18.80
2017-08-23T19:26:02.778Z,18.70
2017-08-23T19:28:28.843Z,18.70
2017-08-23T19:30:54.957Z,18.60
2017-08-23T19:33:21.001Z,18.50
2017-08-23T19:35:47.094Z,18.50
2017-08-23T19:38:13.149Z,18.40
2017-08-23T19:40:39.487Z,18.40
2017-08-23T19:43:05.541Z,18.40
2017-08-23T19:45:31.589Z,18.30
2017-08-23T19:47:57.722Z,18.30
2017-08-23T19:50:23.791Z,18.20
2017-08-23T19:52:49.896Z,18.20
2017-08-23T19:55:15.943Z,18.10
2017-08-23T19:57:42.014Z,18.10
2017-08-23T20:00:08.134Z,18.00
2017-08-23T20:02:34.233Z,18.00
2017-08-23T20:05:00.322Z,17.90
2017-08-23T20:07:26.386Z,17.90
2017-08-23T20:09:52.510Z,17.90
2017-08-23T20:12:18.598Z,17.90
2017-08-23T20:14:44.655Z,17.80
2017-08-23T20:17:10.721Z,17.80
2017-08-23T20:19:36.782Z,17.70
2017-08-23T20:22:02.998Z,17.70
2017-08-23T20:24:29.045Z,17.70
2017-08-23T20:26:55.163Z,17.70
2017-08-23T20:29:21.502Z,17.60
2017-08-23T20:31:47.550Z,17.60
2017-08-23T20:34:13.622Z,17.50
2017-08-23T20:36:39.671Z,17.50
2017-08-23T20:39:05.763Z,17.50
2017-08-23T20:41:31.816Z,17.40
2017-08-23T20:43:57.897Z,17.40
2017-08-23T20:46:23.970Z,17.30
2017-08-23T20:48:50.071Z,17.40
2017-08-23T20:51:16.130Z,17.30
2017-08-23T20:53:42.438Z,17.40
2017-08-23T20:56:08.480Z,17.30
2017-08-23T20:58:34.553Z,17.30
2017-08-23T21:01:00.638Z,17.30
2017-08-23T21:03:26.682Z,17.30
2017-08-23T21:05:52.770Z,17.20
2017-08-23T21:08:18.826Z,17.30
2017-08-23T21:10:44.914Z,17.20
2017-08-23T21:13:10.965Z,17.10
2017-08-23T21:15:37.034Z,17.10
2017-08-23T21:18:03.117Z,17.00
2017-08-23T21:20:29.282Z,16.90
2017-08-23T21:22:55.326Z,16.90
2017-08-23T21:25:21.366Z,16.80
2017-08-23T21:27:47.433Z,16.80
2017-08-23T21:30:13.535Z,16.70
2017-08-23T21:32:39.599Z,16.70
2017-08-23T21:35:05.645Z,16.70
2017-08-23T21:37:31.705Z,16.70
2017-08-23T21:39:57.789Z,16.70
2017-08-23T21:42:23.858Z,16.70
2017-08-23T21:44:49.906Z,16.70
2017-08-23T21:47:15.979Z,16.60
2017-08-23T21:49:42.025Z,16.50
2017-08-23T21:52:08.095Z,16.50
2017-08-23T21:54:34.187Z,16.40
2017-08-23T21:57:00.237Z,16.40
2017-08-23T21:59:26.302Z,16.30
2017-08-23T22:01:52.358Z,16.30
2017-08-23T22:04:18.439Z,16.20
2017-08-23T22:06:44.486Z,16.20
2017-08-23T22:09:10.577Z,16.20
2017-08-23T22:11:36.694Z,16.20
2017-08-23T22:14:02.773Z,16.20
2017-08-23T22:16:28.838Z,16.20
2017-08-23T22:18:54.951Z,16.10
2017-08-23T22:21:21.007Z,16.10
2017-08-23T22:23:47.262Z,16.10
2017-08-23T22:28:49.118Z,16.00
2017-08-23T22:31:15.166Z,16.00
2017-08-23T22:33:41.216Z,15.90
2017-08-23T22:36:07.306Z,15.90
2017-08-23T22:38:33.426Z,15.90
2017-08-23T22:40:59.496Z,15.80
2017-08-23T22:43:25.542Z,15.80
2017-08-23T22:45:51.619Z,15.80
2017-08-23T22:48:17.670Z,15.70
2017-08-23T22:50:43.735Z,15.70
2017-08-23T22:53:09.805Z,15.70
2017-08-23T22:55:35.986Z,15.70
2017-08-23T22:58:02.030Z,15.60
2017-08-23T23:00:28.071Z,15.60
2017-08-23T23:02:54.135Z,15.60
2017-08-23T23:05:21.108Z,15.50
2017-08-23T23:07:47.170Z,15.50
2017-08-23T23:10:13.226Z,15.50
2017-08-23T23:12:39.302Z,15.50
2017-08-23T23:15:05.346Z,15.50
2017-08-23T23:17:31.430Z,15.50
2017-08-23T23:19:57.542Z,15.50
2017-08-23T23:22:23.606Z,15.50
2017-08-23T23:24:49.667Z,15.50
2017-08-23T23:27:15.890Z,15.50
2017-08-23T23:29:41.945Z,15.50
2017-08-23T23:32:07.999Z,15.40
2017-08-23T23:34:34.073Z,15.50
2017-08-23T23:37:00.113Z,15.40
2017-08-23T23:39:26.183Z,15.40
2017-08-23T23:41:52.263Z,15.40
2017-08-23T23:44:18.350Z,15.40
2017-08-23T23:46:44.400Z,15.40
2017-08-23T23:49:10.467Z,15.30
2017-08-23T23:51:36.514Z,15.40
2017-08-23T23:54:02.602Z,15.40
2017-08-23T23:56:28.648Z,15.40
2017-08-23T23:58:54.870Z,15.50
